createdAt,value
2018-05-13T00:02:12.730Z,13.30
2018-05-13T00:05:16.079Z,13.25
2018-05-13T00:08:19.429Z,13.21
2018-05-13T00:11:22.746Z,13.16
2018-05-13T00:14:26.102Z,13.11
2018-05-13T00:17:29.470Z,13.05
2018-05-13T00:20:32.833Z,13.02
2018-05-13T00:23:36.174Z,13.10
2018-05-13T00:26:40.370Z,13.16
2018-05-13T00:29:43.711Z,13.22
2018-05-13T00:32:47.148Z,13.30
2018-05-13T00:35:50.514Z,13.38
2018-05-13T00:38:53.958Z,13.44
2018-05-13T00:41:57.261Z,13.45
2018-05-13T00:45:00.666Z,13.48
2018-05-13T00:48:03.989Z,13.52
2018-05-13T00:51:08.093Z,13.64
2018-05-13T00:54:29.805Z,13.65
2018-05-13T00:57:33.148Z,13.58
2018-05-13T01:00:36.492Z,13.50
2018-05-13T01:03:39.841Z,13.44
2018-05-13T01:06:43.177Z,13.34
2018-05-13T01:09:46.588Z,13.26
2018-05-13T01:12:49.990Z,13.20
2018-05-13T01:15:53.339Z,13.19
2018-05-13T01:18:56.701Z,13.17
2018-05-13T01:22:00.075Z,13.12
2018-05-13T01:25:03.406Z,13.09
2018-05-13T01:28:07.593Z,13.01
2018-05-13T01:31:10.912Z,13.01
2018-05-13T01:34:14.277Z,13.04
2018-05-13T01:37:17.580Z,12.99
2018-05-13T01:40:20.920Z,12.95
2018-05-13T01:43:24.997Z,12.90
2018-05-13T01:46:28.425Z,12.86
2018-05-13T01:49:32.517Z,12.89
2018-05-13T01:52:35.914Z,12.94
2018-05-13T01:55:39.232Z,12.95
2018-05-13T01:58:42.701Z,12.95
2018-05-13T02:01:46.030Z,13.07
2018-05-13T02:04:49.408Z,13.14
2018-05-13T02:07:52.712Z,13.18
2018-05-13T02:10:56.114Z,13.20
2018-05-13T02:13:59.443Z,13.19
2018-05-13T02:17:03.615Z,13.14
2018-05-13T02:20:06.929Z,13.07
2018-05-13T02:23:10.267Z,13.04
2018-05-13T02:26:13.635Z,12.98
2018-05-13T02:29:17.752Z,12.94
2018-05-13T02:32:21.085Z,12.89
2018-05-13T02:35:24.461Z,12.84
2018-05-13T02:38:28.648Z,12.79
2018-05-13T02:41:32.012Z,12.78
2018-05-13T02:44:35.341Z,12.76
2018-05-13T02:47:38.695Z,12.75
2018-05-13T02:50:42.035Z,12.74
2018-05-13T02:53:45.463Z,12.77
2018-05-13T02:56:48.834Z,12.73
2018-05-13T02:59:52.242Z,12.72
2018-05-13T03:02:55.574Z,12.73
2018-05-13T03:05:59.031Z,12.77
2018-05-13T03:09:02.435Z,12.78
2018-05-13T03:12:05.829Z,12.87
2018-05-13T03:15:09.137Z,12.95
2018-05-13T03:18:12.535Z,12.94
2018-05-13T03:21:15.844Z,12.97
2018-05-13T03:24:19.187Z,13.02
2018-05-13T03:27:22.496Z,13.08
2018-05-13T03:30:25.918Z,13.13
2018-05-13T03:33:29.237Z,13.17
2018-05-13T03:36:32.617Z,13.16
2018-05-13T03:39:35.942Z,13.24
2018-05-13T03:42:39.304Z,13.24
2018-05-13T03:45:42.621Z,13.20
2018-05-13T03:48:46.020Z,13.18
2018-05-13T03:51:49.422Z,13.21
2018-05-13T03:54:52.781Z,13.24
2018-05-13T03:57:56.109Z,13.27
2018-05-13T04:00:59.505Z,13.27
2018-05-13T04:04:02.820Z,13.26
2018-05-13T04:07:06.171Z,13.32
2018-05-13T04:14:09.978Z,13.27
2018-05-13T04:17:14.062Z,13.30
2018-05-13T04:20:17.446Z,13.30
2018-05-13T04:23:20.769Z,13.34
2018-05-13T04:26:24.124Z,13.36
2018-05-13T04:29:27.536Z,13.38
2018-05-13T04:32:30.884Z,13.41
2018-05-13T04:35:34.965Z,13.42
2018-05-13T04:38:38.305Z,13.49
2018-05-13T04:41:42.430Z,13.51
2018-05-13T04:44:45.765Z,13.55
2018-05-13T04:47:49.082Z,13.56
2018-05-13T04:50:52.435Z,13.57
2018-05-13T04:53:55.753Z,13.61
2018-05-13T04:56:59.093Z,13.70
2018-05-13T05:00:02.400Z,13.75
2018-05-13T05:03:06.498Z,13.80
2018-05-13T05:06:09.898Z,13.85
2018-05-13T05:09:13.274Z,13.87
2018-05-13T05:12:16.595Z,13.87
2018-05-13T05:15:19.936Z,13.95
2018-05-13T05:18:23.258Z,14.06
2018-05-13T05:21:26.591Z,14.19
2018-05-13T05:24:29.906Z,14.31
2018-05-13T05:27:34.097Z,14.38
2018-05-13T05:30:37.422Z,14.43
2018-05-13T05:33:41.535Z,14.47
2018-05-13T05:36:45.614Z,14.42
2018-05-13T05:39:49.006Z,14.38
2018-05-13T05:42:52.339Z,14.40
2018-05-13T05:45:56.448Z,14.39
2018-05-13T05:48:59.839Z,14.43
2018-05-13T05:52:03.194Z,14.42
2018-05-13T05:55:06.504Z,14.46
2018-05-13T05:58:09.916Z,14.46
2018-05-13T06:01:13.241Z,14.56
2018-05-13T06:04:16.620Z,14.58
2018-05-13T06:07:20.030Z,14.64
2018-05-13T06:10:23.414Z,14.61
2018-05-13T06:13:26.734Z,14.69
2018-05-13T06:16:30.092Z,14.90
2018-05-13T06:19:33.420Z,15.03
2018-05-13T06:22:36.774Z,15.13
2018-05-13T06:25:40.121Z,15.13
2018-05-13T06:28:43.457Z,15.17
2018-05-13T06:31:46.781Z,15.18
2018-05-13T06:47:55.203Z,15.93
2018-05-13T06:50:58.561Z,16.02
2018-05-13T06:54:02.686Z,16.11
2018-05-13T06:57:06.035Z,16.16
2018-05-13T07:00:09.430Z,16.22
2018-05-13T07:03:12.785Z,16.27
2018-05-13T07:06:16.214Z,16.29
2018-05-13T07:09:19.537Z,16.24
2018-05-13T07:12:22.926Z,16.13
2018-05-13T07:15:26.254Z,16.22
2018-05-13T07:18:30.375Z,16.22
2018-05-13T07:21:34.563Z,16.25
2018-05-13T07:24:37.918Z,16.31
2018-05-13T07:27:41.345Z,16.26
2018-05-13T07:30:44.766Z,16.30
2018-05-13T07:33:48.096Z,16.36
2018-05-13T07:36:51.525Z,16.37
2018-05-13T07:39:54.904Z,16.36
2018-05-13T07:42:58.262Z,16.26
2018-05-13T07:46:02.360Z,16.19
2018-05-13T07:49:07.236Z,16.19
2018-05-13T07:52:10.573Z,16.03
2018-05-13T07:55:13.930Z,15.98
2018-05-13T07:58:17.272Z,15.90
2018-05-13T08:01:20.670Z,15.79
2018-05-13T08:04:24.007Z,15.58
2018-05-13T08:07:28.190Z,15.43
2018-05-13T08:10:31.510Z,15.32
2018-05-13T08:13:36.160Z,15.20
2018-05-13T08:16:39.501Z,15.09
2018-05-13T08:19:42.897Z,15.03
2018-05-13T08:22:46.217Z,15.05
2018-05-13T08:25:49.604Z,14.93
2018-05-13T08:28:52.926Z,14.94
2018-05-13T08:31:57.028Z,15.07
2018-05-13T08:35:00.417Z,15.07
2018-05-13T08:38:03.769Z,14.80
2018-05-13T08:41:07.209Z,14.89
2018-05-13T08:44:10.553Z,14.97
2018-05-13T08:47:13.861Z,14.99
2018-05-13T08:50:17.302Z,14.92
2018-05-13T08:53:20.625Z,14.92
2018-05-13T08:56:24.831Z,14.97
2018-05-13T08:59:28.921Z,15.14
2018-05-13T09:02:32.350Z,15.10
2018-05-13T09:05:36.459Z,15.17
2018-05-13T09:08:39.838Z,15.16
2018-05-13T09:11:43.149Z,15.27
2018-05-13T09:14:46.545Z,15.20
2018-05-13T09:17:49.933Z,15.29
2018-05-13T09:20:53.327Z,15.41
2018-05-13T09:23:56.629Z,15.47
2018-05-13T09:27:01.553Z,15.60
2018-05-13T09:30:04.875Z,15.73
2018-05-13T09:33:08.355Z,15.72
2018-05-13T09:36:12.365Z,15.72
2018-05-13T09:39:15.767Z,15.57
2018-05-13T09:42:19.111Z,15.54
2018-05-13T09:45:23.361Z,15.63
2018-05-13T09:48:26.778Z,15.63
2018-05-13T09:51:30.133Z,15.68
2018-05-13T09:54:33.495Z,15.70
2018-05-13T09:57:36.903Z,15.63
2018-05-13T10:00:40.280Z,15.55
2018-05-13T10:03:44.432Z,15.58
2018-05-13T10:06:47.800Z,15.50
2018-05-13T10:09:51.201Z,15.57
2018-05-13T10:12:54.591Z,15.62
2018-05-13T10:15:58.392Z,15.84
2018-05-13T10:19:01.806Z,15.90
2018-05-13T10:22:05.206Z,16.11
2018-05-13T10:25:08.643Z,16.08
2018-05-13T10:28:11.973Z,15.96
2018-05-13T10:31:15.402Z,15.95
2018-05-13T10:34:18.801Z,16.14
2018-05-13T10:37:22.750Z,16.15
2018-05-13T10:40:26.116Z,16.01
2018-05-13T10:43:29.445Z,16.05
2018-05-13T10:46:33.571Z,16.10
2018-05-13T10:49:36.904Z,16.09
2018-05-13T10:52:40.273Z,16.22
2018-05-13T10:55:43.601Z,16.45
2018-05-13T10:58:47.008Z,16.85
2018-05-13T11:01:50.368Z,17.22
2018-05-13T11:04:53.798Z,17.34
2018-05-13T11:07:57.921Z,17.34
2018-05-13T11:11:01.285Z,17.44
2018-05-13T11:14:04.621Z,17.65
2018-05-13T11:17:08.051Z,17.81
2018-05-13T11:20:12.167Z,17.80
2018-05-13T11:23:16.374Z,18.09
2018-05-13T11:26:19.705Z,18.21
2018-05-13T11:29:23.196Z,18.25
2018-05-13T11:32:27.374Z,18.43
2018-05-13T11:35:30.760Z,18.61
2018-05-13T11:38:34.178Z,18.70
2018-05-13T11:41:37.526Z,18.63
2018-05-13T11:44:40.879Z,18.74
2018-05-13T11:47:44.322Z,18.79
2018-05-13T11:50:47.646Z,18.78
2018-05-13T11:53:51.004Z,18.90
2018-05-13T11:56:55.186Z,19.05
2018-05-13T11:59:59.411Z,19.17
2018-05-13T12:03:02.790Z,19.44
2018-05-13T12:06:06.215Z,19.57
2018-05-13T12:09:09.608Z,19.82
2018-05-13T12:12:13.814Z,19.85
2018-05-13T12:15:17.220Z,19.82
2018-05-13T12:18:20.548Z,19.71
2018-05-13T12:21:24.713Z,19.79
2018-05-13T12:24:28.130Z,19.94
2018-05-13T12:27:31.541Z,20.05
2018-05-13T12:30:35.747Z,20.08
2018-05-13T12:33:39.093Z,20.20
2018-05-13T12:36:42.439Z,20.31
2018-05-13T12:39:45.762Z,20.29
2018-05-13T12:42:49.957Z,20.34
2018-05-13T12:45:53.337Z,20.32
2018-05-13T12:48:56.799Z,20.49
2018-05-13T12:52:00.124Z,20.66
2018-05-13T12:55:03.483Z,20.79
2018-05-13T12:58:06.825Z,20.92
2018-05-13T13:01:10.182Z,21.01
2018-05-13T13:04:13.531Z,21.08
2018-05-13T13:07:16.935Z,21.06
2018-05-13T13:10:20.750Z,20.99
2018-05-13T13:13:24.186Z,20.98
2018-05-13T13:16:27.523Z,21.11
2018-05-13T13:19:30.872Z,21.23
2018-05-13T13:22:34.222Z,21.38
2018-05-13T13:25:37.570Z,21.42
2018-05-13T13:28:40.892Z,21.41
2018-05-13T13:31:44.250Z,21.46
2018-05-13T13:34:48.342Z,21.37
2018-05-13T13:37:53.257Z,21.38
2018-05-13T13:40:56.596Z,21.43
2018-05-13T13:44:00.780Z,21.43
2018-05-13T13:47:04.101Z,21.35
2018-05-13T13:50:08.243Z,21.36
2018-05-13T13:53:11.560Z,21.46
2018-05-13T13:56:14.948Z,21.43
2018-05-13T13:59:18.903Z,21.58
2018-05-13T14:02:22.241Z,21.64
2018-05-13T14:05:25.581Z,21.66
2018-05-13T14:08:29.003Z,21.57
2018-05-13T14:11:32.388Z,21.71
2018-05-13T14:14:36.507Z,21.70
2018-05-13T14:17:39.897Z,21.73
2018-05-13T14:20:43.348Z,21.79
2018-05-13T14:23:46.592Z,21.90
2018-05-13T14:26:50.354Z,21.96
2018-05-13T14:29:53.789Z,21.94
2018-05-13T14:32:57.760Z,21.92
2018-05-13T14:36:01.855Z,21.94
2018-05-13T14:39:12.124Z,22.00
2018-05-13T14:42:10.146Z,21.93
2018-05-13T14:45:13.507Z,22.11
2018-05-13T14:48:16.950Z,22.19
2018-05-13T14:51:20.341Z,22.17
2018-05-13T14:54:23.659Z,22.20
2018-05-13T14:57:27.009Z,22.05
2018-05-13T15:00:30.333Z,22.18
2018-05-13T15:03:33.725Z,22.18
2018-05-13T15:06:37.041Z,22.08
2018-05-13T15:09:40.394Z,22.07
2018-05-13T15:12:43.834Z,22.38
2018-05-13T15:15:47.189Z,22.55
2018-05-13T15:18:50.578Z,22.78
2018-05-13T15:21:54.035Z,23.14
2018-05-13T15:24:57.424Z,23.49
2018-05-13T15:28:00.819Z,23.79
2018-05-13T15:31:04.142Z,23.99
2018-05-13T15:34:08.316Z,24.06
2018-05-13T15:37:11.753Z,24.03
2018-05-13T15:40:15.035Z,24.02
2018-05-13T15:43:18.508Z,23.80
2018-05-13T15:46:21.809Z,23.92
2018-05-13T15:49:25.199Z,23.88
2018-05-13T15:52:28.542Z,24.03
2018-05-13T15:55:32.605Z,24.00
2018-05-13T15:58:35.959Z,24.01
2018-05-13T16:01:39.281Z,24.12
2018-05-13T16:04:42.629Z,24.34
2018-05-13T16:07:46.003Z,24.41
2018-05-13T16:10:49.353Z,24.35
2018-05-13T16:13:52.698Z,24.40
2018-05-13T16:16:56.104Z,24.25
2018-05-13T16:19:59.543Z,24.16
2018-05-13T16:23:02.947Z,24.22
2018-05-13T16:26:06.268Z,24.20
2018-05-13T16:29:09.674Z,24.15
2018-05-13T16:32:13.073Z,23.92
2018-05-13T16:35:16.476Z,24.03
2018-05-13T16:38:19.888Z,24.05
2018-05-13T16:41:23.227Z,24.07
2018-05-13T16:44:26.591Z,24.12
2018-05-13T16:47:29.962Z,24.17
2018-05-13T16:50:33.369Z,24.20
2018-05-13T16:53:36.712Z,24.13
2018-05-13T16:56:40.060Z,24.09
2018-05-13T16:59:43.479Z,24.12
2018-05-13T17:02:47.673Z,23.83
2018-05-13T17:05:51.027Z,23.67
2018-05-13T17:08:54.371Z,23.57
2018-05-13T17:11:57.787Z,23.53
2018-05-13T17:15:01.870Z,22.68
2018-05-13T17:18:05.266Z,21.92
2018-05-13T17:21:08.674Z,21.24
2018-05-13T17:24:12.034Z,20.87
2018-05-13T17:27:15.362Z,20.63
2018-05-13T17:30:18.715Z,20.39
2018-05-13T17:33:22.050Z,20.24
2018-05-13T17:36:25.407Z,20.09
2018-05-13T17:39:28.847Z,19.93
2018-05-13T17:42:32.978Z,19.78
2018-05-13T17:45:36.326Z,19.65
2018-05-13T17:48:39.671Z,19.55
2018-05-13T17:51:43.070Z,19.47
2018-05-13T17:54:46.411Z,19.40
2018-05-13T17:57:49.734Z,19.32
2018-05-13T18:00:53.100Z,19.27
2018-05-13T18:03:56.431Z,19.19
2018-05-13T18:06:59.823Z,19.08
2018-05-13T18:10:03.863Z,18.97
2018-05-13T18:13:07.236Z,18.86
2018-05-13T18:16:10.564Z,18.71
2018-05-13T18:19:14.678Z,18.64
2018-05-13T18:22:18.055Z,18.61
2018-05-13T18:25:21.449Z,18.55
2018-05-13T18:28:24.772Z,18.47
2018-05-13T18:31:28.133Z,18.37
2018-05-13T18:34:31.465Z,18.30
2018-05-13T18:37:34.849Z,18.22
2018-05-13T18:40:38.170Z,18.19
2018-05-13T18:43:42.357Z,18.15
2018-05-13T18:46:45.761Z,18.10
2018-05-13T18:49:49.122Z,18.03
2018-05-13T18:52:52.438Z,18.02
2018-05-13T18:55:55.794Z,17.97
2018-05-13T18:58:59.204Z,17.90
2018-05-13T19:02:02.518Z,17.78
2018-05-13T19:05:05.844Z,17.69
2018-05-13T19:08:09.176Z,17.59
2018-05-13T19:11:12.502Z,17.52
2018-05-13T19:14:15.858Z,17.42
2018-05-13T19:17:19.929Z,17.31
2018-05-13T19:20:23.342Z,17.27
2018-05-13T19:23:26.671Z,17.24
2018-05-13T19:26:30.139Z,17.21
2018-05-13T19:29:33.465Z,17.14
2018-05-13T19:32:37.615Z,17.10
2018-05-13T19:35:41.040Z,17.07
2018-05-13T19:38:44.426Z,17.00
2018-05-13T19:41:47.756Z,16.92
2018-05-13T19:44:51.874Z,16.85
2018-05-13T19:47:56.064Z,16.81
2018-05-13T19:50:59.457Z,16.74
2018-05-13T19:54:02.776Z,16.70
2018-05-13T19:57:06.922Z,16.67
2018-05-13T20:00:10.302Z,16.57
2018-05-13T20:03:14.547Z,16.56
2018-05-13T20:06:17.774Z,16.47
2018-05-13T20:09:21.266Z,16.41
2018-05-13T20:12:24.573Z,16.36
2018-05-13T20:15:28.085Z,16.33
2018-05-13T20:18:32.187Z,16.28
2018-05-13T20:21:35.604Z,16.22
2018-05-13T20:24:38.913Z,16.15
2018-05-13T20:27:43.023Z,16.11
2018-05-13T20:30:47.223Z,16.09
2018-05-13T20:33:50.614Z,16.05
2018-05-13T20:36:54.014Z,16.01
2018-05-13T20:39:58.232Z,15.91
2018-05-13T20:43:01.559Z,15.87
2018-05-13T20:46:05.734Z,15.84
2018-05-13T20:49:09.059Z,15.79
2018-05-13T20:52:13.184Z,15.78
2018-05-13T20:55:17.278Z,15.72
2018-05-13T20:58:20.653Z,15.68
2018-05-13T21:01:24.079Z,15.66
2018-05-13T21:04:27.467Z,15.63
2018-05-13T21:07:30.778Z,15.59
2018-05-13T21:10:34.966Z,15.52
2018-05-13T21:13:38.285Z,15.46
2018-05-13T21:16:42.424Z,15.42
2018-05-13T21:19:45.764Z,15.40
2018-05-13T21:22:49.107Z,15.35
2018-05-13T21:25:53.298Z,15.28
2018-05-13T21:28:56.676Z,15.20
2018-05-13T21:32:00.077Z,15.20
2018-05-13T21:35:03.430Z,15.17
2018-05-13T21:38:06.762Z,15.16
2018-05-13T21:41:10.109Z,15.13
2018-05-13T21:44:14.280Z,15.12
2018-05-13T21:47:17.642Z,15.09
2018-05-13T21:50:20.985Z,15.13
2018-05-13T21:53:24.322Z,15.11
2018-05-13T21:56:27.639Z,15.07
2018-05-13T21:59:31.108Z,15.05
2018-05-13T22:02:35.190Z,14.99
2018-05-13T22:05:38.763Z,14.93
2018-05-13T22:08:42.103Z,14.87
2018-05-13T22:11:45.761Z,14.88
2018-05-13T22:14:49.267Z,14.81
2018-05-13T22:17:53.259Z,14.83
2018-05-13T22:20:56.751Z,14.75
2018-05-13T22:24:00.969Z,14.69
2018-05-13T22:27:04.585Z,14.64
2018-05-13T22:30:08.412Z,14.61
2018-05-13T22:33:11.842Z,14.61
2018-05-13T22:36:15.204Z,14.60
2018-05-13T22:39:18.678Z,14.58
2018-05-13T22:42:22.040Z,14.58
2018-05-13T22:45:25.429Z,14.59
2018-05-13T22:48:29.035Z,14.60
2018-05-13T22:51:32.431Z,14.56
2018-05-13T22:54:35.789Z,14.58
2018-05-13T22:57:39.100Z,14.61
2018-05-13T23:00:42.498Z,14.59
2018-05-13T23:03:45.901Z,14.56
2018-05-13T23:06:49.195Z,14.56
2018-05-13T23:09:52.595Z,14.53
2018-05-13T23:12:56.096Z,14.50
2018-05-13T23:15:59.484Z,14.45
2018-05-13T23:19:02.834Z,14.41
2018-05-13T23:22:06.177Z,14.37
2018-05-13T23:25:09.521Z,14.32
2018-05-13T23:28:13.589Z,14.31
2018-05-13T23:31:16.929Z,14.30
2018-05-13T23:34:21.005Z,14.26
2018-05-13T23:37:24.353Z,14.22
2018-05-13T23:40:27.706Z,14.16
2018-05-13T23:43:31.102Z,14.22
2018-05-13T23:46:34.368Z,14.19
2018-05-13T23:49:37.777Z,14.18
2018-05-13T23:52:41.174Z,14.18
2018-05-13T23:55:44.573Z,14.13
2018-05-13T23:58:47.894Z,14.08
